createdAt,value
2018-05-25T00:01:23.896Z,99.90
2018-05-25T00:03:51.339Z,99.90
2018-05-25T00:06:18.752Z,99.90
2018-05-25T00:08:46.956Z,99.90
2018-05-25T00:11:14.446Z,99.90
2018-05-25T00:13:41.885Z,99.90
2018-05-25T00:16:09.328Z,99.90
2018-05-25T00:18:36.809Z,99.90
2018-05-25T00:21:04.257Z,99.90
2018-05-25T00:23:31.701Z,99.90
2018-05-25T00:25:59.181Z,99.90
2018-05-25T00:28:26.615Z,99.90
2018-05-25T00:30:54.070Z,99.90
2018-05-25T00:33:21.509Z,99.90
2018-05-25T00:35:48.949Z,99.90
2018-05-25T00:38:17.262Z,99.90
2018-05-25T00:40:44.688Z,99.90
2018-05-25T00:43:12.892Z,99.90
2018-05-25T00:45:40.371Z,99.90
2018-05-25T00:48:07.837Z,99.90
2018-05-25T00:50:35.274Z,99.90
2018-05-25T00:53:02.746Z,99.90
2018-05-25T00:55:41.612Z,99.90
2018-05-25T00:58:09.823Z,99.90
2018-05-25T01:00:37.241Z,99.90
2018-05-25T01:03:05.451Z,99.90
2018-05-25T01:05:32.883Z,99.90
2018-05-25T01:08:00.354Z,99.90
2018-05-25T01:10:27.778Z,99.90
2018-05-25T01:12:55.973Z,99.90
2018-05-25T01:15:23.467Z,99.90
2018-05-25T01:17:51.001Z,99.90
2018-05-25T01:20:18.411Z,99.90
2018-05-25T01:22:46.639Z,99.90
2018-05-25T01:25:15.032Z,99.90
2018-05-25T01:27:42.472Z,99.90
2018-05-25T01:30:09.937Z,99.90
2018-05-25T01:32:37.409Z,99.90
2018-05-25T01:35:04.865Z,99.90
2018-05-25T01:37:32.292Z,99.90
2018-05-25T01:39:59.743Z,99.90
2018-05-25T01:42:27.200Z,99.90
2018-05-25T01:44:54.628Z,99.90
2018-05-25T01:47:22.829Z,99.90
2018-05-25T01:49:50.261Z,99.90
2018-05-25T01:52:17.704Z,99.90
2018-05-25T01:54:45.911Z,99.90
2018-05-25T01:57:13.388Z,99.90
2018-05-25T01:59:40.844Z,99.90
2018-05-25T02:02:08.276Z,99.90
2018-05-25T02:04:35.769Z,99.90
2018-05-25T02:07:03.209Z,99.90
2018-05-25T02:09:30.762Z,99.90
2018-05-25T02:11:58.594Z,99.90
2018-05-25T02:14:26.189Z,99.90
2018-05-25T02:16:53.641Z,99.90
2018-05-25T02:19:21.080Z,99.90
2018-05-25T02:21:48.513Z,99.90
2018-05-25T02:24:16.723Z,99.90
2018-05-25T02:26:44.147Z,99.90
2018-05-25T02:29:12.373Z,99.90
2018-05-25T02:31:39.822Z,99.90
2018-05-25T02:34:07.246Z,99.90
2018-05-25T02:36:34.685Z,99.90
2018-05-25T02:39:02.929Z,99.90
2018-05-25T02:41:30.381Z,99.90
2018-05-25T02:43:57.836Z,99.90
2018-05-25T02:46:25.391Z,99.90
2018-05-25T02:48:52.826Z,99.90
2018-05-25T02:51:20.252Z,99.90
2018-05-25T02:53:47.697Z,99.90
2018-05-25T02:56:15.897Z,99.90
2018-05-25T02:58:43.340Z,99.90
2018-05-25T03:01:10.768Z,99.90
2018-05-25T03:03:38.306Z,99.90
2018-05-25T03:06:05.720Z,99.90
2018-05-25T03:08:33.204Z,99.90
2018-05-25T03:11:00.601Z,99.90
2018-05-25T03:13:28.808Z,99.90
2018-05-25T03:15:56.271Z,99.90
2018-05-25T03:18:23.693Z,99.90
2018-05-25T03:20:51.892Z,99.90
2018-05-25T03:23:19.340Z,99.90
2018-05-25T03:25:46.920Z,99.90
2018-05-25T03:28:14.375Z,99.90
2018-05-25T03:30:41.814Z,99.90
2018-05-25T03:33:09.306Z,99.90
2018-05-25T03:35:36.773Z,99.90
2018-05-25T03:38:04.217Z,99.90
2018-05-25T03:40:31.655Z,99.90
2018-05-25T03:42:59.084Z,99.90
2018-05-25T03:45:27.320Z,99.90
2018-05-25T03:47:54.765Z,99.90
2018-05-25T03:50:22.241Z,99.90
2018-05-25T03:52:49.693Z,99.90
2018-05-25T03:55:17.137Z,99.90
2018-05-25T03:57:44.609Z,99.90
2018-05-25T04:00:23.945Z,99.90
2018-05-25T04:02:51.476Z,99.90
2018-05-25T04:05:18.914Z,99.90
2018-05-25T04:07:46.378Z,99.90
2018-05-25T04:10:13.809Z,99.90
2018-05-25T04:12:41.236Z,99.90
2018-05-25T04:15:09.449Z,99.90
2018-05-25T04:17:36.876Z,99.90
2018-05-25T04:20:05.081Z,99.90
2018-05-25T04:22:32.545Z,99.90
2018-05-25T04:24:59.988Z,99.90
2018-05-25T04:27:27.457Z,99.90
2018-05-25T04:29:54.880Z,99.90
2018-05-25T04:32:23.077Z,99.90
2018-05-25T04:34:50.542Z,99.90
2018-05-25T04:37:17.965Z,99.90
2018-05-25T04:39:46.204Z,99.90
2018-05-25T04:42:13.731Z,99.90
2018-05-25T04:44:41.144Z,99.90
2018-05-25T04:47:09.360Z,99.90
2018-05-25T04:49:36.817Z,99.90
2018-05-25T04:52:04.229Z,99.90
2018-05-25T04:54:32.443Z,99.90
2018-05-25T04:56:59.933Z,99.90
2018-05-25T04:59:27.390Z,99.90
2018-05-25T05:01:54.920Z,99.90
2018-05-25T05:04:22.376Z,99.90
2018-05-25T05:06:49.840Z,99.90
2018-05-25T05:09:17.296Z,99.90
2018-05-25T05:11:44.729Z,99.90
2018-05-25T05:14:12.205Z,99.90
2018-05-25T05:16:39.681Z,99.90
2018-05-25T05:19:07.161Z,99.90
2018-05-25T05:21:34.599Z,99.90
2018-05-25T05:24:02.063Z,99.90
2018-05-25T05:26:29.509Z,99.90
2018-05-25T05:28:56.942Z,99.90
2018-05-25T05:31:24.496Z,99.90
2018-05-25T05:33:51.925Z,99.90
2018-05-25T05:36:19.398Z,99.90
2018-05-25T05:38:46.824Z,99.90
2018-05-25T05:41:15.062Z,99.90
2018-05-25T05:43:42.639Z,99.90
2018-05-25T05:46:10.179Z,99.90
2018-05-25T05:48:37.601Z,99.90
2018-05-25T05:51:05.078Z,99.90
2018-05-25T05:53:32.528Z,99.90
2018-05-25T05:56:00.010Z,99.90
2018-05-25T05:58:27.450Z,99.90
2018-05-25T06:00:54.893Z,99.90
2018-05-25T06:03:22.396Z,99.90
2018-05-25T06:05:49.849Z,99.90
2018-05-25T06:08:17.324Z,99.90
2018-05-25T06:10:45.664Z,99.90
2018-05-25T06:13:13.100Z,99.90
2018-05-25T06:15:40.544Z,99.90
2018-05-25T06:18:08.046Z,99.90
2018-05-25T06:20:35.476Z,99.90
2018-05-25T06:23:02.923Z,99.90
2018-05-25T06:25:30.391Z,99.90
2018-05-25T06:27:57.822Z,99.90
2018-05-25T06:30:25.265Z,99.90
2018-05-25T06:32:53.470Z,99.90
2018-05-25T06:35:20.981Z,99.90
2018-05-25T06:37:48.408Z,99.90
2018-05-25T06:40:16.037Z,99.90
2018-05-25T06:42:43.496Z,99.90
2018-05-25T06:45:10.916Z,99.90
2018-05-25T06:47:39.139Z,99.90
2018-05-25T06:50:06.650Z,99.90
2018-05-25T06:52:34.869Z,99.90
2018-05-25T06:55:02.311Z,99.90
2018-05-25T06:57:29.794Z,99.90
2018-05-25T06:59:57.215Z,99.90
2018-05-25T07:02:24.786Z,99.90
2018-05-25T07:04:52.204Z,99.90
2018-05-25T07:07:20.429Z,99.90
2018-05-25T07:09:47.855Z,99.90
2018-05-25T07:12:15.332Z,99.90
2018-05-25T07:14:42.753Z,99.90
2018-05-25T07:17:11.008Z,99.90
2018-05-25T07:19:38.470Z,99.90
2018-05-25T07:22:05.973Z,99.90
2018-05-25T07:24:33.405Z,99.90
2018-05-25T07:27:01.625Z,99.90
2018-05-25T07:29:29.093Z,99.90
2018-05-25T07:31:56.573Z,99.90
2018-05-25T07:34:24.039Z,99.90
2018-05-25T07:36:52.275Z,99.90
2018-05-25T07:39:19.773Z,99.90
2018-05-25T07:41:47.266Z,99.90
2018-05-25T07:44:14.691Z,99.90
2018-05-25T07:46:42.928Z,99.90
2018-05-25T07:49:10.348Z,99.90
2018-05-25T07:51:37.838Z,99.90
2018-05-25T07:54:05.285Z,99.90
2018-05-25T07:56:32.820Z,99.90
2018-05-25T07:59:00.275Z,99.90
2018-05-25T08:01:27.756Z,99.90
2018-05-25T08:03:55.196Z,99.90
2018-05-25T08:06:22.688Z,99.90
2018-05-25T08:08:50.126Z,99.90
2018-05-25T08:11:17.592Z,99.90
2018-05-25T08:13:45.140Z,99.90
2018-05-25T08:16:12.584Z,99.90
2018-05-25T08:18:40.041Z,99.90
2018-05-25T08:21:07.494Z,99.90
2018-05-25T08:23:34.924Z,99.90
2018-05-25T08:26:02.380Z,99.90
2018-05-25T08:28:30.580Z,99.90
2018-05-25T08:30:58.068Z,99.90
2018-05-25T08:33:25.508Z,99.90
2018-05-25T08:35:52.951Z,99.90
2018-05-25T08:38:20.409Z,99.90
2018-05-25T08:40:47.853Z,99.90
2018-05-25T08:43:15.348Z,99.90
2018-05-25T08:45:42.792Z,99.90
2018-05-25T08:48:10.326Z,99.90
2018-05-25T08:50:37.801Z,99.90
2018-05-25T08:53:05.245Z,99.90
2018-05-25T08:55:32.685Z,99.90
2018-05-25T08:58:00.122Z,99.90
2018-05-25T09:00:28.332Z,99.90
2018-05-25T09:02:55.882Z,99.90
2018-05-25T09:05:23.368Z,99.90
2018-05-25T09:07:50.832Z,99.90
2018-05-25T09:10:18.462Z,99.90
2018-05-25T09:12:45.881Z,99.90
2018-05-25T09:15:14.140Z,99.90
2018-05-25T09:17:41.581Z,99.90
2018-05-25T09:20:09.102Z,99.90
2018-05-25T09:22:36.590Z,99.90
2018-05-25T09:25:04.021Z,99.90
2018-05-25T09:27:31.456Z,99.90
2018-05-25T09:29:58.917Z,99.90
2018-05-25T09:32:26.358Z,99.90
2018-05-25T09:34:53.973Z,99.90
2018-05-25T09:37:21.404Z,99.90
2018-05-25T09:39:49.258Z,99.90
2018-05-25T09:42:16.737Z,99.90
2018-05-25T09:44:44.217Z,99.90
2018-05-25T09:47:11.632Z,99.90
2018-05-25T09:49:39.088Z,99.90
2018-05-25T09:52:06.541Z,99.90
2018-05-25T09:54:34.017Z,99.90
2018-05-25T09:57:01.499Z,99.90
2018-05-25T09:59:28.977Z,99.90
2018-05-25T10:01:56.502Z,99.90
2018-05-25T10:04:23.938Z,99.90
2018-05-25T10:06:51.397Z,99.90
2018-05-25T10:09:18.873Z,99.90
2018-05-25T10:11:46.369Z,99.90
2018-05-25T10:14:13.873Z,99.90
2018-05-25T10:16:41.325Z,99.90
2018-05-25T10:19:08.886Z,99.90
2018-05-25T10:21:36.321Z,99.90
2018-05-25T10:24:03.796Z,99.90
2018-05-25T10:26:31.250Z,99.90
2018-05-25T10:28:58.724Z,99.90
2018-05-25T10:31:26.166Z,99.90
2018-05-25T10:33:53.605Z,99.90
2018-05-25T10:36:21.202Z,99.90
2018-05-25T10:38:48.669Z,99.90
2018-05-25T10:41:16.154Z,99.90
2018-05-25T10:43:43.572Z,99.90
2018-05-25T10:46:11.104Z,99.90
2018-05-25T10:48:38.582Z,99.90
2018-05-25T10:51:05.999Z,99.90
2018-05-25T10:53:33.578Z,99.90
2018-05-25T10:56:01.075Z,99.90
2018-05-25T10:58:28.456Z,99.90
2018-05-25T11:00:56.663Z,99.90
2018-05-25T11:03:24.141Z,99.90
2018-05-25T11:05:51.618Z,99.90
2018-05-25T11:08:19.064Z,99.90
2018-05-25T11:10:46.589Z,99.90
2018-05-25T11:13:14.021Z,99.90
2018-05-25T11:15:41.460Z,99.90
2018-05-25T11:18:08.933Z,99.90
2018-05-25T11:20:36.517Z,99.90
2018-05-25T11:23:03.996Z,99.90
2018-05-25T11:25:31.457Z,99.90
2018-05-25T11:27:58.888Z,99.90
2018-05-25T11:30:26.339Z,99.90
2018-05-25T11:32:53.772Z,99.90
2018-05-25T11:35:21.257Z,99.90
2018-05-25T11:37:48.717Z,99.90
2018-05-25T11:40:16.154Z,99.90
2018-05-25T11:42:43.612Z,99.90
2018-05-25T11:45:11.093Z,99.90
2018-05-25T11:47:38.511Z,99.90
2018-05-25T11:50:06.744Z,99.90
2018-05-25T11:52:34.199Z,99.90
2018-05-25T11:55:01.658Z,99.90
2018-05-25T11:57:29.115Z,99.90
2018-05-25T11:59:57.505Z,99.90
2018-05-25T12:02:24.956Z,99.90
2018-05-25T12:04:52.392Z,99.90
2018-05-25T12:07:19.861Z,99.90
2018-05-25T12:09:47.302Z,99.90
2018-05-25T12:12:14.741Z,99.90
2018-05-25T12:14:42.305Z,99.90
2018-05-25T12:17:09.729Z,99.90
2018-05-25T12:19:37.164Z,99.90
2018-05-25T12:22:05.387Z,99.90
2018-05-25T12:24:32.841Z,99.90
2018-05-25T12:27:00.324Z,99.90
2018-05-25T12:29:27.764Z,99.90
2018-05-25T12:31:55.214Z,99.90
2018-05-25T12:34:22.647Z,99.90
2018-05-25T12:36:50.144Z,99.90
2018-05-25T12:39:17.602Z,99.90
2018-05-25T12:41:45.031Z,99.90
2018-05-25T12:44:12.569Z,99.90
2018-05-25T12:46:40.029Z,99.90
2018-05-25T12:49:08.245Z,99.90
2018-05-25T12:51:35.672Z,99.90
2018-05-25T12:54:03.228Z,99.90
2018-05-25T12:56:30.669Z,99.90
2018-05-25T12:58:58.900Z,99.90
2018-05-25T13:01:26.370Z,99.90
2018-05-25T13:03:53.884Z,99.90
2018-05-25T13:06:21.318Z,99.90
2018-05-25T13:08:48.752Z,99.90
2018-05-25T13:11:17.071Z,99.90
2018-05-25T13:13:44.496Z,99.90
2018-05-25T13:16:12.710Z,99.90
2018-05-25T13:18:40.260Z,99.90
2018-05-25T13:21:07.689Z,99.90
2018-05-25T13:23:35.188Z,99.90
2018-05-25T13:26:02.662Z,99.90
2018-05-25T13:28:30.096Z,99.90
2018-05-25T13:30:57.564Z,99.90
2018-05-25T13:33:25.100Z,99.90
2018-05-25T13:35:52.542Z,99.90
2018-05-25T13:38:20.026Z,99.90
2018-05-25T13:40:47.455Z,99.90
2018-05-25T13:43:14.929Z,99.90
2018-05-25T13:45:42.414Z,99.90
2018-05-25T13:48:10.044Z,99.90
2018-05-25T13:50:37.535Z,99.90
2018-05-25T13:53:05.073Z,99.90
2018-05-25T13:55:32.500Z,99.90
2018-05-25T13:57:59.945Z,99.90
2018-05-25T14:00:27.436Z,99.90
2018-05-25T14:02:54.892Z,99.90
2018-05-25T14:05:22.450Z,99.90
2018-05-25T14:07:49.948Z,99.90
2018-05-25T14:10:17.408Z,99.90
2018-05-25T14:12:44.848Z,99.90
2018-05-25T14:15:13.897Z,99.90
2018-05-25T14:17:41.387Z,99.90
2018-05-25T14:20:08.842Z,99.90
2018-05-25T14:22:36.264Z,99.90
2018-05-25T14:25:03.745Z,99.90
2018-05-25T14:27:31.199Z,99.90
2018-05-25T14:29:58.644Z,99.90
2018-05-25T14:32:26.072Z,99.90
2018-05-25T14:34:53.562Z,99.90
2018-05-25T14:37:21.012Z,99.90
2018-05-25T14:39:48.480Z,99.90
2018-05-25T14:42:15.945Z,99.90
2018-05-25T14:44:43.491Z,99.90
2018-05-25T14:47:10.931Z,99.90
2018-05-25T14:49:39.156Z,99.90
2018-05-25T14:52:06.633Z,99.90
2018-05-25T14:54:34.052Z,99.90
2018-05-25T14:57:01.593Z,99.90
2018-05-25T14:59:29.014Z,99.90
2018-05-25T15:01:57.416Z,99.90
2018-05-25T15:04:24.918Z,99.90
2018-05-25T15:06:52.444Z,99.90
2018-05-25T15:09:19.934Z,99.90
2018-05-25T15:11:47.383Z,99.90
2018-05-25T15:14:14.883Z,99.90
2018-05-25T15:16:43.152Z,99.90
2018-05-25T15:19:11.579Z,99.90
2018-05-25T15:21:39.006Z,99.90
2018-05-25T15:24:06.431Z,99.90
2018-05-25T15:26:34.644Z,98.90
2018-05-25T15:29:02.076Z,98.90
2018-05-25T15:31:30.269Z,97.50
2018-05-25T15:33:57.759Z,97.50
2018-05-25T15:36:25.292Z,95.90
2018-05-25T15:38:52.725Z,96.00
2018-05-25T15:41:20.167Z,95.70
2018-05-25T15:43:48.357Z,94.70
2018-05-25T15:46:15.909Z,94.60
2018-05-25T15:48:43.346Z,94.60
2018-05-25T15:51:11.575Z,94.80
2018-05-25T15:53:38.992Z,94.70
2018-05-25T15:56:07.245Z,93.40
2018-05-25T15:58:34.697Z,93.40
2018-05-25T16:01:02.149Z,93.10
2018-05-25T16:03:29.585Z,93.40
2018-05-25T16:05:57.053Z,93.90
2018-05-25T16:08:24.582Z,93.50
2018-05-25T16:10:52.013Z,92.80
2018-05-25T16:13:19.445Z,92.70
2018-05-25T16:15:47.695Z,92.00
2018-05-25T16:18:15.146Z,92.00
2018-05-25T16:20:42.679Z,91.30
2018-05-25T16:23:10.143Z,91.40
2018-05-25T16:25:37.576Z,91.00
2018-05-25T16:28:05.081Z,90.20
2018-05-25T16:30:32.562Z,90.20
2018-05-25T16:33:00.027Z,90.50
2018-05-25T16:35:28.212Z,91.00
2018-05-25T16:37:55.724Z,90.90
2018-05-25T16:40:23.279Z,91.30
2018-05-25T16:42:50.705Z,91.40
2018-05-25T16:45:18.296Z,91.20
2018-05-25T16:47:45.725Z,91.20
2018-05-25T16:50:13.201Z,91.10
2018-05-25T16:52:40.605Z,90.60
2018-05-25T16:55:08.845Z,91.50
2018-05-25T16:57:36.312Z,91.40
2018-05-25T17:00:03.764Z,92.20
2018-05-25T17:02:31.316Z,93.00
2018-05-25T17:04:58.851Z,93.70
2018-05-25T17:07:27.014Z,94.30
2018-05-25T17:09:54.474Z,94.20
2018-05-25T17:12:22.028Z,94.60
2018-05-25T17:14:49.474Z,95.20
2018-05-25T17:17:16.932Z,95.60
2018-05-25T17:19:44.412Z,96.40
2018-05-25T17:22:11.868Z,96.70
2018-05-25T17:24:39.321Z,96.60
2018-05-25T17:27:06.793Z,96.80
2018-05-25T17:29:34.284Z,97.20
2018-05-25T17:32:01.724Z,97.60
2018-05-25T17:34:30.797Z,98.10
2018-05-25T17:36:58.304Z,98.00
2018-05-25T17:39:25.745Z,98.20
2018-05-25T17:41:53.192Z,98.40
2018-05-25T17:44:20.720Z,98.70
2018-05-25T17:46:48.185Z,99.20
2018-05-25T17:49:16.417Z,99.30
2018-05-25T17:51:43.861Z,99.50
2018-05-25T17:54:12.139Z,99.90
2018-05-25T17:56:40.346Z,99.90
2018-05-25T17:59:08.787Z,99.90
2018-05-25T18:01:37.102Z,99.90
2018-05-25T18:04:04.533Z,99.90
2018-05-25T18:06:31.965Z,99.90
2018-05-25T18:09:00.190Z,99.90
2018-05-25T18:11:27.616Z,99.90
2018-05-25T18:13:55.054Z,99.90
2018-05-25T18:16:23.258Z,99.90
2018-05-25T18:18:50.701Z,99.90
2018-05-25T18:21:18.135Z,99.90
2018-05-25T18:23:45.584Z,99.90
2018-05-25T18:26:13.103Z,99.90
2018-05-25T18:28:40.569Z,99.90
2018-05-25T18:31:08.133Z,99.90
2018-05-25T18:33:35.634Z,99.90
2018-05-25T18:36:03.847Z,99.90
2018-05-25T18:38:31.300Z,99.90
2018-05-25T18:40:58.736Z,99.90
2018-05-25T18:43:26.190Z,99.90
2018-05-25T18:45:53.621Z,99.90
2018-05-25T18:48:21.824Z,99.90
2018-05-25T18:50:49.313Z,99.90
2018-05-25T18:53:16.780Z,99.90
2018-05-25T18:55:44.332Z,99.90
2018-05-25T18:58:11.807Z,99.90
2018-05-25T19:00:39.435Z,99.90
2018-05-25T19:03:06.955Z,99.90
2018-05-25T19:05:35.160Z,99.90
2018-05-25T19:08:02.613Z,99.90
2018-05-25T19:10:30.031Z,99.90
2018-05-25T19:12:58.244Z,99.90
2018-05-25T19:15:25.723Z,99.90
2018-05-25T19:17:53.169Z,99.90
2018-05-25T19:20:20.640Z,99.90
2018-05-25T19:22:48.156Z,99.90
2018-05-25T19:25:16.347Z,99.90
2018-05-25T19:27:43.803Z,99.90
2018-05-25T19:30:11.247Z,99.90
2018-05-25T19:32:38.711Z,99.90
2018-05-25T19:35:06.171Z,99.90
2018-05-25T19:37:33.652Z,99.90
2018-05-25T19:40:01.106Z,99.90
2018-05-25T19:42:28.554Z,99.90
2018-05-25T19:44:56.064Z,99.90
2018-05-25T19:47:23.604Z,99.90
2018-05-25T19:49:51.223Z,99.90
2018-05-25T19:52:18.676Z,99.90
2018-05-25T19:54:46.229Z,99.90
2018-05-25T19:57:13.733Z,99.90
2018-05-25T19:59:41.168Z,99.90
2018-05-25T20:02:08.623Z,99.90
2018-05-25T20:04:36.163Z,99.90
2018-05-25T20:07:03.676Z,99.90
2018-05-25T20:09:31.148Z,99.90
2018-05-25T20:12:00.356Z,99.90
2018-05-25T20:14:27.809Z,99.90
2018-05-25T20:16:55.315Z,99.90
2018-05-25T20:19:22.788Z,99.90
2018-05-25T20:21:50.233Z,99.90
2018-05-25T20:24:17.671Z,99.90
2018-05-25T20:26:45.201Z,99.90
2018-05-25T20:29:12.727Z,99.90
2018-05-25T20:31:40.275Z,99.90
2018-05-25T20:34:07.744Z,99.90
2018-05-25T20:36:35.270Z,99.90
2018-05-25T20:39:02.731Z,99.90
2018-05-25T20:41:30.180Z,99.90
2018-05-25T20:43:57.646Z,99.90
2018-05-25T20:46:25.114Z,99.90
2018-05-25T20:48:52.554Z,99.90
2018-05-25T20:51:19.984Z,99.90
2018-05-25T20:53:47.432Z,99.90
2018-05-25T20:56:14.858Z,99.90
2018-05-25T20:58:43.053Z,99.90
2018-05-25T21:01:10.554Z,99.90
2018-05-25T21:03:38.008Z,99.90
2018-05-25T21:06:05.464Z,99.90
2018-05-25T21:08:33.050Z,99.90
2018-05-25T21:11:00.537Z,99.90
2018-05-25T21:13:27.975Z,99.90
2018-05-25T21:15:56.168Z,99.90
2018-05-25T21:18:23.650Z,99.90
2018-05-25T21:20:51.102Z,99.90
2018-05-25T21:23:18.551Z,99.90
2018-05-25T21:25:45.985Z,99.90
2018-05-25T21:28:14.196Z,99.90
2018-05-25T21:30:41.740Z,99.90
2018-05-25T21:33:09.160Z,99.90
2018-05-25T21:35:37.366Z,99.90
2018-05-25T21:38:05.036Z,99.90
2018-05-25T21:40:32.455Z,99.90
2018-05-25T21:42:59.952Z,99.90
2018-05-25T21:45:27.395Z,99.90
2018-05-25T21:47:54.821Z,99.90
2018-05-25T21:50:23.133Z,99.90
2018-05-25T21:52:50.620Z,99.90
2018-05-25T21:55:18.151Z,99.90
2018-05-25T21:57:45.573Z,99.90
2018-05-25T22:00:13.797Z,99.90
2018-05-25T22:02:41.236Z,99.90
2018-05-25T22:05:08.668Z,99.90
2018-05-25T22:07:36.757Z,99.90
2018-05-25T22:10:04.228Z,99.90
2018-05-25T22:12:31.666Z,99.90
2018-05-25T22:14:59.160Z,99.90
2018-05-25T22:17:26.606Z,99.90
2018-05-25T22:19:54.081Z,99.90
2018-05-25T22:22:21.519Z,99.90
2018-05-25T22:24:48.968Z,99.90
2018-05-25T22:27:16.411Z,99.90
2018-05-25T22:29:43.833Z,99.90
2018-05-25T22:32:12.038Z,99.90
2018-05-25T22:34:39.476Z,99.90
2018-05-25T22:37:07.057Z,99.90
2018-05-25T22:39:34.576Z,99.90
2018-05-25T22:42:01.582Z,99.90
2018-05-25T22:44:40.940Z,99.90
2018-05-25T22:47:20.330Z,99.90
2018-05-25T22:49:59.784Z,99.90
2018-05-25T22:52:32.447Z,99.90
2018-05-25T22:55:00.001Z,99.90
2018-05-25T22:57:27.446Z,99.90
2018-05-25T22:59:54.880Z,99.90
2018-05-25T23:02:23.086Z,99.90
2018-05-25T23:04:50.649Z,99.90
2018-05-25T23:07:18.105Z,99.90
2018-05-25T23:09:45.549Z,99.90
2018-05-25T23:12:13.036Z,99.90
2018-05-25T23:14:40.481Z,99.90
2018-05-25T23:17:07.922Z,99.90
2018-05-25T23:19:35.348Z,99.90
2018-05-25T23:22:03.592Z,99.90
2018-05-25T23:24:31.045Z,99.90
2018-05-25T23:26:58.586Z,99.90
2018-05-25T23:29:26.059Z,99.90
2018-05-25T23:31:54.512Z,99.90
2018-05-25T23:34:21.984Z,99.90
2018-05-25T23:36:49.449Z,99.90
2018-05-25T23:39:16.892Z,99.90
2018-05-25T23:41:44.344Z,99.90
2018-05-25T23:44:11.790Z,99.90
2018-05-25T23:46:39.240Z,99.90
2018-05-25T23:49:06.664Z,99.90
2018-05-25T23:51:34.895Z,99.90
2018-05-25T23:54:02.429Z,99.90
2018-05-25T23:56:29.868Z,99.90
2018-05-25T23:58:57.305Z,99.90
